Time;durP1;ratioP1;P1;durP2;ratioP2;P2;SDS_P1;SDS_P2;PMS_P1;PMS_P2;Temp;Humidity;BMP_temperature;BMP_pressure;BME280_temperature;BME280_humidity;BME280_pressure;Samples;Min_cycle;Max_cycle;Signal;HPM_P1;HPM_P2
2022/08/04 00:01:34;;;;;;;6.63;2.15;;;;;;;23.80;58.95;101144.34;4882842;29;20537;-79
2022/08/04 00:04:16;;;;;;;5.22;1.73;;;;;;;23.75;59.36;101147.41;4895633;29;20088;-79
2022/08/04 00:07:14;;;;;;;8.32;2.35;;;;;;;23.69;59.39;101143.38;4895055;29;20052;-77
2022/08/04 00:09:52;;;;;;;5.10;1.83;;;;;;;23.66;59.11;101148.13;4885016;29;20045;-73
2022/08/04 00:12:25;;;;;;;8.57;2.50;;;;;;;23.60;59.31;101135.19;4892497;29;20079;-73
2022/08/04 00:15:02;;;;;;;7.93;2.10;;;;;;;23.55;59.56;101141.78;4895982;29;20094;-78
2022/08/04 00:17:39;;;;;;;4.28;1.85;;;;;;;23.51;59.56;101136.75;4890544;29;20045;-78
2022/08/04 00:20:17;;;;;;;6.90;2.55;;;;;;;23.46;59.62;101142.53;4896726;29;20055;-77
2022/08/04 00:22:46;;;;;;;4.68;2.20;;;;;;;23.38;59.71;101140.47;4886573;29;20480;-82
2022/08/04 00:25:15;;;;;;;10.20;2.53;;;;;;;23.36;60.21;101142.41;4889242;29;20057;-82
2022/08/04 00:27:43;;;;;;;7.43;2.00;;;;;;;23.33;60.25;101137.28;4895703;29;20037;-83
2022/08/04 00:30:10;;;;;;;4.75;2.40;;;;;;;23.33;60.45;101125.69;4895740;29;20097;-84
2022/08/04 00:32:40;;;;;;;6.43;2.40;;;;;;;23.31;60.87;101130.31;4896168;29;20819;-83
2022/08/04 00:35:09;;;;;;;6.43;2.42;;;;;;;23.28;60.24;101126.03;4896836;29;20045;-82
2022/08/04 00:37:37;;;;;;;6.13;2.10;;;;;;;23.29;60.95;101129.56;4887249;29;20052;-81
2022/08/04 00:40:46;;;;;;;4.80;2.20;;;;;;;23.26;60.76;101125.31;4894550;29;20048;-82
2022/08/04 00:43:31;;;;;;;7.60;2.60;;;;;;;23.23;61.12;101118.34;4894831;29;20129;-82
2022/08/04 00:46:39;;;;;;;8.75;2.78;;;;;;;23.19;60.71;101118.72;4895304;29;20466;-82
2022/08/04 00:49:30;;;;;;;5.60;2.13;;;;;;;23.15;60.85;101112.66;4892450;29;20065;-82
2022/08/04 00:52:27;;;;;;;6.10;2.40;;;;;;;23.10;60.95;101113.03;4884034;29;20134;-80
2022/08/04 00:55:17;;;;;;;7.22;2.10;;;;;;;23.06;60.84;101116.97;4895658;29;20068;-80
2022/08/04 00:58:33;;;;;;;5.85;2.40;;;;;;;22.99;61.00;101118.44;4892412;29;20053;-79
2022/08/04 01:01:05;;;;;;;5.68;2.08;;;;;;;22.92;61.25;101112.69;4890931;29;20105;-80
2022/08/04 01:03:41;;;;;;;4.32;2.50;;;;;;;22.86;61.35;101109.59;4892424;29;20053;-80
2022/08/04 01:06:23;;;;;;;7.38;2.78;;;;;;;22.80;61.50;101103.72;4890048;29;20118;-80
2022/08/04 01:09:21;;;;;;;6.97;2.55;;;;;;;22.74;61.48;101101.53;4888878;29;20136;-79
2022/08/04 01:12:03;;;;;;;5.07;2.47;;;;;;;22.69;61.60;101108.22;4887956;29;20541;-82
2022/08/04 01:14:58;;;;;;;6.90;2.55;;;;;;;22.62;61.89;101108.72;4893825;29;20117;-81
2022/08/04 01:18:02;;;;;;;5.05;2.42;;;;;;;22.57;61.70;101102.00;4893929;29;20048;-79
2022/08/04 01:20:45;;;;;;;6.00;2.10;;;;;;;22.52;62.08;101102.34;4893824;29;20057;-79
2022/08/04 01:24:05;;;;;;;5.85;2.28;;;;;;;22.47;61.93;101099.13;4881735;29;20048;-79
2022/08/04 01:26:50;;;;;;;6.55;2.72;;;;;;;22.41;61.92;101095.09;4894093;29;20088;-79
2022/08/04 01:29:37;;;;;;;5.82;2.47;;;;;;;22.38;61.93;101091.75;4893238;29;20137;-79
2022/08/04 01:32:26;;;;;;;8.20;2.30;;;;;;;22.36;62.32;101096.38;4895119;29;20049;-78
2022/08/04 01:35:10;;;;;;;5.28;2.60;;;;;;;22.34;62.49;101091.16;4892355;29;20053;-77
2022/08/04 01:38:27;;;;;;;6.72;2.38;;;;;;;22.33;62.62;101086.75;4894941;29;20088;-76
2022/08/04 01:41:01;;;;;;;4.03;1.98;;;;;;;22.31;62.53;101086.88;4886766;29;20132;-77
2022/08/04 01:43:31;;;;;;;6.35;2.13;;;;;;;22.33;62.36;101087.59;4894043;29;20041;-77
2022/08/04 01:46:02;;;;;;;6.63;2.10;;;;;;;22.34;62.65;101083.09;4891869;29;20050;-77
2022/08/04 01:48:30;;;;;;;6.10;2.22;;;;;;;22.34;62.28;101083.09;4894549;29;20068;-77
2022/08/04 01:51:03;;;;;;;4.78;1.90;;;;;;;22.31;62.59;101084.19;4891924;29;20081;-77
2022/08/04 01:53:35;;;;;;;7.03;2.33;;;;;;;22.35;62.91;101084.81;4897477;29;20049;-77
2022/08/04 01:56:06;;;;;;;6.93;2.15;;;;;;;22.40;62.72;101087.13;4897352;29;20112;-78
2022/08/04 01:58:36;;;;;;;4.32;2.05;;;;;;;22.43;62.64;101078.88;4891052;29;20127;-77
2022/08/04 02:01:10;;;;;;;6.00;1.95;;;;;;;22.42;62.41;101079.84;4896711;29;20143;-77
2022/08/04 02:03:42;;;;;;;8.35;2.15;;;;;;;22.43;62.26;101079.72;4897164;29;20568;-77
2022/08/04 02:07:01;;;;;;;5.75;1.92;;;;;;;22.39;62.19;101078.22;4889919;29;20127;-78
2022/08/04 02:09:45;;;;;;;5.68;2.40;;;;;;;22.36;62.52;101074.91;4896861;29;20081;-77
2022/08/04 02:12:41;;;;;;;8.02;2.53;;;;;;;22.33;62.10;101068.78;4896742;29;20129;-77
2022/08/04 02:15:19;;;;;;;4.70;1.90;;;;;;;22.35;62.25;101066.00;4889649;29;20049;-78
2022/08/04 02:18:35;;;;;;;7.85;2.15;;;;;;;22.34;61.73;101070.50;4894190;29;20084;-77
2022/08/04 02:21:03;;;;;;;;;;;;;;;22.31;61.92;101061.81;4891727;29;20528;-77
2022/08/04 02:23:39;;;;;;;6.05;2.13;;;;;;;22.27;61.86;101055.84;4894763;29;19934;-76
2022/08/04 02:26:17;;;;;;;8.02;2.10;;;;;;;22.22;61.83;101047.31;4891704;29;20036;-77
2022/08/04 02:29:33;;;;;;;4.68;2.15;;;;;;;22.21;61.99;101056.31;4896134;29;20817;-77
2022/08/04 02:32:09;;;;;;;5.30;2.47;;;;;;;22.18;61.91;101051.19;4893939;29;20067;-77
2022/08/04 02:35:05;;;;;;;7.30;2.15;;;;;;;22.15;61.88;101051.41;4898369;29;20049;-79
2022/08/04 02:37:34;;;;;;;8.63;2.40;;;;;;;22.10;62.18;101046.38;4881194;29;20593;-79
2022/08/04 02:40:05;;;;;;;5.88;2.53;;;;;;;22.04;61.92;101041.50;4899033;29;20102;-82
2022/08/04 02:42:34;;;;;;;9.25;2.45;;;;;;;22.03;62.37;101042.47;4896913;29;20088;-83
2022/08/04 02:45:04;;;;;;;8.88;2.65;;;;;;;22.00;62.07;101051.63;4895317;29;20093;-82
2022/08/04 02:47:33;;;;;;;9.10;2.80;;;;;;;21.97;62.28;101042.94;4897437;29;20125;-82
2022/08/04 02:50:22;;;;;;;5.28;2.30;;;;;;;21.94;62.25;101044.00;4879691;29;20054;-82
2022/08/04 02:53:01;;;;;;;6.80;2.80;;;;;;;21.90;62.29;101042.53;4896519;29;20041;-81
2022/08/04 02:55:32;;;;;;;4.72;2.30;;;;;;;21.89;62.21;101043.50;4897547;29;20071;-81
2022/08/04 02:58:03;;;;;;;6.47;2.42;;;;;;;21.84;62.85;101035.81;4894166;29;20052;-81
2022/08/04 03:00:31;;;;;;;7.57;2.72;;;;;;;21.78;62.84;101036.25;4896698;29;20045;-81
2022/08/04 03:03:34;;;;;;;6.93;2.63;;;;;;;21.74;63.40;101033.91;4896504;29;20048;-81
2022/08/04 03:06:09;;;;;;;9.27;2.65;;;;;;;21.68;63.29;101029.84;4891217;29;20100;-80
2022/08/04 03:09:26;;;;;;;7.93;2.40;;;;;;;21.65;63.50;101032.78;4892247;29;20052;-81
2022/08/04 03:12:18;;;;;;;5.38;2.45;;;;;;;21.61;63.85;101034.84;4894522;29;20045;-81
2022/08/04 03:15:34;;;;;;;8.40;2.90;;;;;;;21.56;64.07;101029.78;4881135;29;20052;-81
2022/08/04 03:19:00;;;;;;;7.60;2.72;;;;;;;21.52;64.46;101019.38;4893643;29;20052;-80
2022/08/04 03:22:27;;;;;;;7.75;2.63;;;;;;;21.50;64.46;101019.50;4888549;29;20142;-76
2022/08/04 03:25:52;;;;;;;7.38;3.10;;;;;;;21.54;64.53;101025.50;4852141;29;21018;-76
2022/08/04 03:29:27;;;;;;;6.32;2.88;;;;;;;21.58;64.40;101021.63;4890849;29;20116;-76
2022/08/04 03:32:51;;;;;;;10.20;3.05;;;;;;;21.59;64.36;101018.00;4889926;29;20072;-76
2022/08/04 03:36:11;;;;;;;10.32;3.00;;;;;;;21.61;64.26;101010.72;4897268;29;20501;-76
2022/08/04 03:39:09;;;;;;;9.90;2.90;;;;;;;21.62;64.18;101019.59;4896039;29;20085;-76
2022/08/04 03:41:57;;;;;;;6.63;2.67;;;;;;;21.65;64.12;101011.34;4895838;29;20053;-77
2022/08/04 03:44:56;;;;;;;10.00;2.85;;;;;;;21.64;63.75;101012.28;4895295;29;20049;-79
2022/08/04 03:47:53;;;;;;;8.30;2.47;;;;;;;21.61;63.79;101012.53;4891428;29;20128;-79
2022/08/04 03:50:45;;;;;;;12.90;3.13;;;;;;;21.64;63.90;101009.63;4903524;29;20533;-80
2022/08/04 03:53:54;;;;;;;11.23;2.90;;;;;;;21.65;63.47;101016.69;4894345;29;20042;-80
2022/08/04 03:56:58;;;;;;;10.65;2.75;;;;;;;21.64;63.33;101013.13;4896027;29;20073;-80
2022/08/04 04:00:05;;;;;;;7.93;2.85;;;;;;;21.62;63.11;101012.38;4893543;29;20045;-81
2022/08/04 04:03:09;;;;;;;10.88;3.00;;;;;;;21.59;63.15;101009.97;4895703;29;20088;-80
2022/08/04 04:06:34;;;;;;;6.65;2.70;;;;;;;21.55;63.17;101001.25;4897286;29;20056;-82
2022/08/04 04:09:28;;;;;;;7.47;2.72;;;;;;;21.50;63.37;101008.78;4891448;29;20061;-81
2022/08/04 04:12:50;;;;;;;6.60;2.22;;;;;;;21.48;63.94;101007.19;4897191;29;20805;-81
2022/08/04 04:15:58;;;;;;;9.27;2.80;;;;;;;21.49;63.75;101006.22;4893953;29;20509;-81
2022/08/04 04:18:56;;;;;;;11.10;2.75;;;;;;;21.52;63.67;101003.28;4892526;29;20048;-78
2022/08/04 04:21:45;;;;;;;19.17;2.83;;;;;;;21.53;63.50;101011.25;4898300;29;20084;-80
2022/08/04 04:24:26;;;;;;;9.30;2.65;;;;;;;21.53;63.45;101005.00;4890635;29;20045;-80
2022/08/04 04:27:44;;;;;;;9.30;2.60;;;;;;;21.52;63.35;101001.47;4890652;29;20120;-79
2022/08/04 04:30:50;;;;;;;9.45;2.45;;;;;;;21.52;63.59;101008.66;4895628;29;20056;-76
2022/08/04 04:34:03;;;;;;;8.38;2.45;;;;;;;21.52;63.66;101008.66;4896114;29;20052;-80
2022/08/04 04:37:23;;;;;;;11.45;2.85;;;;;;;21.54;63.57;101001.34;4884671;29;20521;-79
2022/08/04 04:40:12;;;;;;;11.60;2.60;;;;;;;21.61;63.27;100996.44;4822511;29;20053;-76
2022/08/04 04:43:21;;;;;;;11.02;2.70;;;;;;;21.68;63.61;100998.53;4891934;29;20192;-78
2022/08/04 04:46:25;;;;;;;11.15;2.83;;;;;;;21.74;63.32;101005.28;4898457;29;20144;-79
2022/08/04 04:49:13;;;;;;;12.10;3.00;;;;;;;21.80;63.39;101009.31;4901865;29;20092;-79
2022/08/04 04:51:59;;;;;;;7.82;2.55;;;;;;;21.81;63.46;100998.47;4899361;29;20049;-79
2022/08/04 04:54:38;;;;;;;15.55;2.97;;;;;;;21.89;63.67;101003.25;4898217;29;20037;-79
2022/08/04 04:57:24;;;;;;;12.63;3.00;;;;;;;21.99;63.43;100998.91;4899803;29;20064;-80
2022/08/04 05:00:16;;;;;;;9.30;3.00;;;;;;;22.08;63.07;100991.97;4902227;29;20052;-78
2022/08/04 05:03:41;;;;;;;9.27;3.00;;;;;;;22.24;63.03;100999.69;4902295;29;20112;-78
2022/08/04 05:06:49;;;;;;;12.40;2.92;;;;;;;22.36;62.81;100997.91;4916881;29;20062;-78
2022/08/04 05:09:42;;;;;;;10.88;2.53;;;;;;;22.51;62.71;100998.56;4894348;29;20041;-78
2022/08/04 05:12:59;;;;;;;12.13;2.95;;;;;;;22.61;62.63;101002.22;4899351;29;20089;-78
2022/08/04 05:15:52;;;;;;;14.85;2.97;;;;;;;22.77;62.15;101001.88;4888726;29;20061;-79
2022/08/04 05:18:26;;;;;;;15.25;3.08;;;;;;;22.90;61.64;101014.31;4899712;29;20131;-79
2022/08/04 05:21:14;;;;;;;;;;;;;;;23.01;61.06;101024.22;4896399;29;20076;-78
2022/08/04 05:23:47;;;;;;;15.95;3.58;;;;;;;23.13;62.04;101044.75;4896076;29;19996;-64
2022/08/04 05:26:24;;;;;;;11.13;3.42;;;;;;;23.16;62.21;101046.31;4892243;29;20097;-65
2022/08/04 05:28:56;;;;;;;14.60;3.80;;;;;;;23.25;61.56;101032.16;4892483;29;20080;-65
2022/08/04 05:31:31;;;;;;;17.13;3.50;;;;;;;23.46;61.58;101034.06;4892647;29;20101;-65
2022/08/04 05:34:11;;;;;;;16.88;4.35;;;;;;;23.62;61.03;101039.06;4892362;29;20060;-65
2022/08/04 05:36:46;;;;;;;13.38;3.92;;;;;;;23.66;60.13;101035.97;4893374;29;20041;-65
2022/08/04 05:39:50;;;;;;;11.05;3.55;;;;;;;23.87;59.90;101049.47;4891733;29;20121;-64
2022/08/04 05:42:19;;;;;;;14.52;3.47;;;;;;;24.33;59.28;101052.81;4892504;29;20279;-64
2022/08/04 05:44:50;;;;;;;17.05;4.47;;;;;;;25.47;56.52;101051.13;4893484;29;20937;-64
2022/08/04 05:47:20;;;;;;;10.60;4.30;;;;;;;26.64;53.93;101045.69;4882836;29;20124;-63
2022/08/04 05:49:49;;;;;;;19.10;4.68;;;;;;;26.81;52.21;101060.31;4889368;29;20055;-62
2022/08/04 05:52:31;;;;;;;11.98;3.90;;;;;;;27.45;50.84;101056.91;4899630;29;20049;-63
2022/08/04 05:55:01;;;;;;;16.00;4.63;;;;;;;28.24;49.11;101056.28;4898734;29;20120;-63
2022/08/04 05:57:30;;;;;;;13.40;4.28;;;;;;;28.18;48.24;101060.53;4877796;29;20045;-62
2022/08/04 06:00:01;;;;;;;13.02;4.57;;;;;;;27.98;48.79;101063.34;4893897;29;20090;-63
2022/08/04 06:02:51;;;;;;;22.20;4.90;;;;;;;28.51;48.07;101055.31;4888525;29;20065;-63
2022/08/04 06:05:19;;;;;;;17.33;4.25;;;;;;;28.24;48.56;101061.72;4890956;29;20079;-63
2022/08/04 06:07:47;;;;;;;21.17;5.45;;;;;;;27.62;49.13;101055.22;4889912;29;20045;-63
2022/08/04 06:10:39;;;;;;;15.32;4.30;;;;;;;27.06;50.70;101049.84;4894755;29;20833;-63
2022/08/04 06:13:13;;;;;;;18.40;5.10;;;;;;;26.77;51.74;101058.03;4886710;29;20060;-63
2022/08/04 06:16:05;;;;;;;40.13;6.50;;;;;;;26.48;52.47;101059.81;4895513;29;20496;-63
2022/08/04 06:18:38;;;;;;;15.73;5.28;;;;;;;26.33;52.82;101054.00;4891032;29;20272;-63
2022/08/04 06:21:28;;;;;;;10.65;4.18;;;;;;;26.24;52.91;101059.44;4880400;29;20488;-62
2022/08/04 06:23:57;;;;;;;15.82;5.07;;;;;;;26.16;53.61;101057.44;4912541;29;20045;-62
2022/08/04 06:26:35;;;;;;;13.98;4.90;;;;;;;26.04;54.12;101045.91;4879827;29;20840;-62
2022/08/04 06:29:04;;;;;;;18.90;5.28;;;;;;;26.07;54.16;101048.31;4896377;29;20177;-62
2022/08/04 06:31:45;;;;;;;15.65;4.97;;;;;;;26.11;53.62;101038.97;4899099;29;20124;-61
2022/08/04 06:34:34;;;;;;;16.70;4.88;;;;;;;26.16;53.01;101038.53;4915872;29;20056;-61
2022/08/04 06:37:03;;;;;;;11.82;5.10;;;;;;;26.23;52.58;101047.75;4910870;29;20081;-61
2022/08/04 06:39:32;;;;;;;21.92;5.20;;;;;;;26.26;53.15;101041.22;4898838;29;20045;-61
2022/08/04 06:42:02;;;;;;;19.48;5.00;;;;;;;26.28;53.09;101052.72;4897854;29;20045;-61
2022/08/04 06:44:58;;;;;;;17.00;5.10;;;;;;;26.32;53.38;101046.06;4897304;29;20128;-61
2022/08/04 06:47:27;;;;;;;12.40;5.40;;;;;;;26.36;53.37;101044.75;4897310;29;20128;-61
2022/08/04 06:49:57;;;;;;;11.48;4.95;;;;;;;26.39;53.18;101043.63;4898942;29;20101;-61
2022/08/04 06:52:45;;;;;;;15.80;5.65;;;;;;;26.52;52.87;101046.84;4897161;29;20041;-62
2022/08/04 06:55:12;;;;;;;19.58;5.00;;;;;;;26.65;52.88;101041.97;4898854;29;20056;-61
2022/08/04 06:57:44;;;;;;;15.05;4.68;;;;;;;26.73;52.25;101045.78;4897884;29;20045;-62
2022/08/04 07:00:15;;;;;;;13.65;4.40;;;;;;;26.74;52.07;101036.69;4898463;29;20185;-62
2022/08/04 07:02:51;;;;;;;18.13;4.35;;;;;;;26.75;51.66;101041.09;4895985;29;20228;-62
2022/08/04 07:05:20;;;;;;;26.63;4.78;;;;;;;26.78;51.64;101038.97;4897784;29;20109;-61
2022/08/04 07:07:47;;;;;;;13.38;4.68;;;;;;;26.85;51.80;101035.69;4897020;29;20552;-61
2022/08/04 07:10:29;;;;;;;12.00;4.40;;;;;;;26.89;51.56;101035.25;4897520;29;20094;-62
2022/08/04 07:12:59;;;;;;;29.60;5.05;;;;;;;26.97;51.41;101048.00;4897018;29;20075;-62
2022/08/04 07:15:27;;;;;;;15.32;4.72;;;;;;;27.11;51.18;101049.38;4896894;29;20511;-61
2022/08/04 07:18:00;;;;;;;11.05;4.45;;;;;;;27.24;50.66;101054.44;4893136;29;20045;-61
2022/08/04 07:20:29;;;;;;;19.75;5.00;;;;;;;27.29;50.77;101049.41;4898341;29;20041;-62
2022/08/04 07:23:06;;;;;;;13.02;3.83;;;;;;;27.40;50.33;101053.78;4897363;29;20053;-62
2022/08/04 07:25:36;;;;;;;17.80;4.22;;;;;;;27.48;50.20;101056.59;4897908;29;20469;-61
2022/08/04 07:28:27;;;;;;;22.30;4.35;;;;;;;27.62;50.18;101057.09;4889281;29;20459;-62
2022/08/04 07:30:56;;;;;;;11.10;3.97;;;;;;;27.77;48.91;101054.72;4896905;29;20064;-62
2022/08/04 07:33:26;;;;;;;19.33;4.60;;;;;;;27.87;48.23;101061.72;4897914;29;20132;-62
2022/08/04 07:35:55;;;;;;;11.30;3.80;;;;;;;27.96;48.65;101049.13;4895265;29;20091;-62
2022/08/04 07:38:42;;;;;;;14.90;3.67;;;;;;;28.14;47.96;101059.13;4894735;29;20037;-62
2022/08/04 07:41:23;;;;;;;11.00;3.70;;;;;;;28.16;47.18;101054.41;4897203;29;20132;-62
2022/08/04 07:44:09;;;;;;;12.30;4.10;;;;;;;28.18;47.25;101055.09;4891385;29;20052;-62
2022/08/04 07:46:36;;;;;;;11.32;3.97;;;;;;;28.25;47.05;101048.03;4895545;29;20056;-61
2022/08/04 07:49:07;;;;;;;11.68;3.72;;;;;;;28.40;47.12;101058.28;4897906;29;20136;-62
2022/08/04 07:51:40;;;;;;;14.13;3.50;;;;;;;28.58;46.40;101056.41;4897471;29;20045;-62
2022/08/04 07:54:09;;;;;;;11.73;3.67;;;;;;;28.76;45.83;101059.06;4893129;29;20763;-61
2022/08/04 07:56:40;;;;;;;35.30;5.65;;;;;;;28.94;45.93;101055.44;4896843;29;20459;-61
2022/08/04 07:59:08;;;;;;;50.67;6.45;;;;;;;29.02;45.62;101057.31;4897755;29;20049;-61
2022/08/04 08:01:36;;;;;;;9.50;3.50;;;;;;;29.17;45.53;101054.84;4907756;29;20049;-61
2022/08/04 08:04:06;;;;;;;9.10;3.38;;;;;;;29.31;44.79;101065.06;4915421;29;20466;-62
2022/08/04 08:06:36;;;;;;;11.32;4.22;;;;;;;29.28;44.99;101059.97;4898504;29;20556;-61
2022/08/04 08:09:20;;;;;;;10.23;3.60;;;;;;;29.32;44.72;101061.34;4895626;29;20048;-61
2022/08/04 08:11:51;;;;;;;13.13;3.88;;;;;;;29.36;44.50;101065.44;4897465;29;20045;-62
2022/08/04 08:14:39;;;;;;;9.43;3.55;;;;;;;29.25;44.55;101066.56;4896593;29;20045;-61
2022/08/04 08:17:06;;;;;;;26.52;5.07;;;;;;;29.28;44.70;101059.97;4897385;29;20055;-61
2022/08/04 08:19:34;;;;;;;13.30;3.83;;;;;;;29.31;44.81;101065.06;4900364;29;20040;-61
2022/08/04 08:22:04;;;;;;;11.38;4.03;;;;;;;29.28;44.43;101065.41;4913152;29;20077;-61
2022/08/04 08:24:35;;;;;;;11.55;3.47;;;;;;;29.19;45.02;101061.81;4897791;29;20045;-61
2022/08/04 08:27:04;;;;;;;19.10;4.97;;;;;;;29.05;44.86;101065.13;4896670;29;20073;-61
2022/08/04 08:29:36;;;;;;;12.60;4.28;;;;;;;28.91;45.22;101058.47;4884807;29;20050;-61
2022/08/04 08:32:09;;;;;;;34.97;4.83;;;;;;;28.95;45.65;101057.97;4879052;29;20085;-61
2022/08/04 08:34:37;;;;;;;8.60;3.45;;;;;;;29.01;45.35;101047.47;4878879;29;20131;-62
2022/08/04 08:37:35;;;;;;;30.25;4.82;;;;;;;29.10;45.75;101051.94;4897075;29;20920;-61
2022/08/04 08:40:31;;;;;;;17.67;5.13;;;;;;;29.20;45.72;101059.94;4897601;29;20060;-62
2022/08/04 08:43:51;;;;;;;19.25;4.80;;;;;;;29.29;44.43;101058.94;4897061;29;20075;-61
2022/08/04 08:47:08;;;;;;;14.95;4.53;;;;;;;29.36;44.31;101059.19;4893909;29;20049;-62
2022/08/04 08:50:16;;;;;;;24.25;5.35;;;;;;;29.45;44.33;101063.63;4897233;29;20045;-61
2022/08/04 08:53:01;;;;;;;15.20;4.25;;;;;;;29.62;44.06;101060.94;4891345;29;20474;-61
2022/08/04 08:56:10;;;;;;;29.33;4.55;;;;;;;29.74;43.68;101067.75;4891781;29;20068;-61
2022/08/04 08:59:15;;;;;;;23.90;4.70;;;;;;;29.85;43.80;101077.44;4887332;29;20065;-61
2022/08/04 09:01:51;;;;;;;31.90;5.78;;;;;;;30.04;43.52;101079.00;4883441;29;20068;-61
2022/08/04 09:05:03;;;;;;;26.77;5.03;;;;;;;30.20;42.64;101084.47;4894131;29;20124;-61
2022/08/04 09:07:57;;;;;;;42.28;6.00;;;;;;;30.29;42.62;101079.03;4891312;29;20086;-61
2022/08/04 09:10:49;;;;;;;27.27;4.82;;;;;;;30.36;42.65;101072.72;4890942;29;20049;-61
2022/08/04 09:13:32;;;;;;;48.13;7.13;;;;;;;30.47;42.23;101076.97;4888255;29;20046;-61
2022/08/04 09:16:23;;;;;;;26.50;5.47;;;;;;;30.49;41.99;101074.06;4889515;29;20051;-63
2022/08/04 09:19:01;;;;;;;26.08;5.18;;;;;;;30.45;41.81;101076.28;4891160;29;20056;-61
2022/08/04 09:21:46;;;;;;;14.93;4.30;;;;;;;30.58;41.51;101074.94;4894233;29;20049;-61
2022/08/04 09:24:34;;;;;;;30.98;5.40;;;;;;;30.63;41.98;101083.41;4893515;29;20072;-61
2022/08/04 09:27:17;;;;;;;13.10;4.25;;;;;;;30.75;40.93;101083.91;4894519;29;20052;-61
2022/08/04 09:30:00;;;;;;;23.02;4.40;;;;;;;30.76;41.82;101089.16;4894892;29;20128;-61
2022/08/04 09:32:37;;;;;;;20.27;5.10;;;;;;;31.01;40.89;101082.78;4893636;29;20329;-61
2022/08/04 09:36:26;;;;;;;23.40;5.00;;;;;;;31.13;41.24;101084.16;4891365;29;20124;-61
2022/08/04 09:39:05;;;;;;;21.77;5.10;;;;;;;31.09;41.79;101083.63;4864692;29;20093;-62
2022/08/04 09:42:16;;;;;;;24.05;4.82;;;;;;;31.29;41.55;101089.50;4880948;29;20046;-62
2022/08/04 09:45:01;;;;;;;21.05;4.35;;;;;;;31.52;40.38;101090.59;4879014;29;20771;-62
2022/08/04 09:47:48;;;;;;;11.00;3.40;;;;;;;31.60;40.53;101083.22;4894360;29;20974;-62
2022/08/04 09:50:32;;;;;;;27.77;4.40;;;;;;;31.72;39.07;101096.47;4901236;29;20073;-62
2022/08/04 09:53:14;;;;;;;29.08;4.88;;;;;;;31.64;39.29;101089.19;4893445;29;20046;-62
2022/08/04 09:55:45;;;;;;;13.13;4.05;;;;;;;31.64;39.74;101091.03;4892094;29;20157;-62
2022/08/04 09:58:47;;;;;;;15.73;4.00;;;;;;;31.68;39.65;101093.25;4891083;29;20048;-62
2022/08/04 10:01:21;;;;;;;;;;;;;;;31.79;39.26;101092.00;4892072;29;20048;-62
2022/08/04 10:03:56;;;;;;;30.65;5.68;;;;;;;31.77;39.49;101094.06;4894620;29;19928;-62
2022/08/04 10:07:08;;;;;;;12.90;4.75;;;;;;;31.76;40.19;101103.25;4894308;29;20137;-62
2022/08/04 10:10:03;;;;;;;14.18;4.53;;;;;;;31.72;39.33;101112.81;4896119;29;20088;-62
2022/08/04 10:12:57;;;;;;;35.25;6.47;;;;;;;31.59;40.44;101122.38;4895525;29;20543;-62
2022/08/04 10:15:42;;;;;;;24.35;5.07;;;;;;;31.57;41.50;101121.72;4895659;29;20048;-62
2022/08/04 10:18:42;;;;;;;26.77;6.10;;;;;;;31.51;42.27;101125.16;4894997;29;20502;-63
2022/08/04 10:21:37;;;;;;;33.65;6.00;;;;;;;31.52;42.96;101126.00;4895182;29;20045;-62
2022/08/04 10:25:07;;;;;;;14.10;4.70;;;;;;;31.48;42.79;101127.38;4896007;29;20049;-62
2022/08/04 10:28:04;;;;;;;10.77;4.20;;;;;;;31.31;42.86;101134.78;4894972;29;20143;-62
2022/08/04 10:30:38;;;;;;;7.28;3.65;;;;;;;31.02;43.31;101147.09;4896780;29;20068;-62
2022/08/04 10:33:22;;;;;;;8.70;3.17;;;;;;;30.63;43.38;101149.56;4893609;29;20049;-63
2022/08/04 10:36:08;;;;;;;8.07;3.53;;;;;;;30.17;44.78;101157.31;4895788;29;20053;-62
2022/08/04 10:38:55;;;;;;;11.70;3.25;;;;;;;29.77;45.53;101175.22;4895265;29;20068;-62
2022/08/04 10:41:39;;;;;;;8.48;3.00;;;;;;;29.38;46.37;101179.31;4897779;29;20041;-62
2022/08/04 10:44:42;;;;;;;8.20;2.45;;;;;;;29.05;46.83;101187.25;4897905;29;20037;-62
2022/08/04 10:47:19;;;;;;;13.43;2.53;;;;;;;28.69;47.84;101204.44;4894637;29;20089;-62
2022/08/04 10:49:54;;;;;;;16.85;2.83;;;;;;;28.37;49.13;101219.38;4894590;29;20049;-61
2022/08/04 10:52:41;;;;;;;9.00;2.83;;;;;;;28.00;50.25;101233.88;4892250;29;20045;-62
2022/08/04 10:55:35;;;;;;;6.50;1.98;;;;;;;27.73;50.76;101251.81;4895706;29;20132;-62
2022/08/04 10:58:31;;;;;;;20.63;3.22;;;;;;;27.41;50.85;101253.91;4894348;29;20144;-61
2022/08/04 11:01:24;;;;;;;15.32;2.75;;;;;;;26.98;53.50;101241.75;4898599;29;20053;-61
2022/08/04 11:04:34;;;;;;;10.20;2.55;;;;;;;26.45;55.25;101251.13;4894829;29;20061;-61
2022/08/04 11:07:02;;;;;;;23.85;4.72;;;;;;;26.04;56.49;101264.69;4896958;29;20144;-61
2022/08/04 11:09:33;;;;;;;9.93;2.80;;;;;;;25.76;57.32;101264.44;4893241;29;20089;-61
2022/08/04 11:12:11;;;;;;;9.63;2.63;;;;;;;25.53;58.56;101259.25;4897048;29;20101;-61
2022/08/04 11:14:51;;;;;;;9.15;2.63;;;;;;;25.28;59.68;101249.69;4898579;29;20104;-61
2022/08/04 11:17:32;;;;;;;12.80;2.85;;;;;;;24.97;61.13;101241.56;4896119;29;20052;-61
2022/08/04 11:20:29;;;;;;;8.50;2.95;;;;;;;24.76;61.98;101215.44;4896616;29;20109;-61
2022/08/04 11:23:09;;;;;;;9.60;2.78;;;;;;;24.65;63.57;101193.88;4894840;29;20045;-61
2022/08/04 11:26:27;;;;;;;7.55;2.58;;;;;;;24.75;64.47;101197.53;4892270;29;20056;-61
2022/08/04 11:29:30;;;;;;;9.32;3.03;;;;;;;25.19;65.22;101194.69;4885467;29;20113;-61
2022/08/04 11:32:02;;;;;;;8.35;2.55;;;;;;;25.75;64.54;101187.13;4891533;29;20067;-61
2022/08/04 11:34:29;;;;;;;7.43;2.47;;;;;;;25.91;63.90;101183.91;4895725;29;20093;-61
2022/08/04 11:37:10;;;;;;;8.02;2.95;;;;;;;25.99;63.43;101189.50;4891930;29;20080;-61
2022/08/04 11:40:02;;;;;;;5.55;2.33;;;;;;;26.06;62.95;101192.47;4893605;29;20049;-61
2022/08/04 11:42:39;;;;;;;10.07;2.70;;;;;;;26.10;63.23;101191.22;4899033;29;20097;-61
2022/08/04 11:45:14;;;;;;;15.88;3.20;;;;;;;26.15;63.38;101186.25;4895728;29;20056;-61
2022/08/04 11:48:00;;;;;;;16.30;3.15;;;;;;;26.09;63.19;101192.22;4892550;29;20041;-61
2022/08/04 11:50:49;;;;;;;11.35;2.90;;;;;;;25.97;62.52;101207.66;4894752;29;20548;-61
2022/08/04 11:53:25;;;;;;;11.30;3.10;;;;;;;25.77;62.33;101222.94;4895478;29;20045;-61
2022/08/04 11:56:10;;;;;;;23.02;3.55;;;;;;;25.58;63.01;101221.06;4896478;29;20097;-61
2022/08/04 11:58:39;;;;;;;21.92;4.30;;;;;;;25.50;63.61;101218.16;4892133;29;20073;-61
2022/08/04 12:01:49;;;;;;;11.27;3.10;;;;;;;25.49;64.28;101208.34;4896035;29;20115;-61
2022/08/04 12:05:04;;;;;;;10.32;2.88;;;;;;;25.56;64.54;101207.66;4895459;29;20150;-61
2022/08/04 12:07:48;;;;;;;17.83;3.30;;;;;;;25.92;65.35;101209.91;4859065;29;20600;-61
2022/08/04 12:10:34;;;;;;;;;;;;;;;26.33;63.73;101210.72;4854862;29;20051;-61
2022/08/04 12:13:35;;;;;;;5.40;2.17;;;;;;;26.89;60.77;101221.00;4889349;29;20023;-61
2022/08/04 12:16:24;;;;;;;16.30;3.65;;;;;;;27.07;59.21;101208.41;4895291;29;20160;-61
2022/08/04 12:19:02;;;;;;;11.98;2.92;;;;;;;27.18;58.79;101209.25;4897292;29;20045;-61
2022/08/04 12:21:49;;;;;;;5.97;2.63;;;;;;;27.23;58.84;101207.81;4900594;29;20053;-61
2022/08/04 12:24:46;;;;;;;9.57;2.75;;;;;;;27.30;57.84;101204.53;4903435;29;20121;-61
2022/08/04 12:27:30;;;;;;;8.57;2.65;;;;;;;27.39;57.95;101204.47;4896660;29;20057;-61
2022/08/04 12:30:00;;;;;;;;;;;;;;;27.65;57.73;101203.84;4897661;29;20558;-61
2022/08/04 12:33:13;;;;;;;14.00;2.80;;;;;;;27.90;56.60;101202.28;4899799;29;19927;-61
2022/08/04 12:36:05;;;;;;;8.98;2.20;;;;;;;27.97;56.27;101197.13;4894510;29;20057;-61
2022/08/04 12:38:51;;;;;;;9.48;2.47;;;;;;;28.15;55.51;101196.31;4896288;29;20052;-62
2022/08/04 12:41:25;;;;;;;9.80;2.17;;;;;;;28.33;55.75;101194.44;4898211;29;20809;-61
2022/08/04 12:43:54;;;;;;;5.45;2.10;;;;;;;28.55;54.02;101192.28;4892702;29;20540;-61
2022/08/04 12:46:27;;;;;;;7.68;2.60;;;;;;;28.67;54.23;101201.88;4894551;29;20033;-61
2022/08/04 12:49:02;;;;;;;11.57;2.40;;;;;;;28.65;54.87;101193.03;4895036;29;20134;-62